createdAt,value
2022-10-11T00:00:35.431Z,89.72
2022-10-11T00:01:35.560Z,90.78
2022-10-11T00:02:35.394Z,90.74
2022-10-11T00:03:35.390Z,90.58
2022-10-11T00:04:35.377Z,90.27
2022-10-11T00:05:35.382Z,90.27
2022-10-11T00:06:35.356Z,90.37
2022-10-11T00:07:35.364Z,90.11
2022-10-11T00:08:35.334Z,89.80
2022-10-11T00:09:35.313Z,90.92
2022-10-11T00:10:35.323Z,90.21
2022-10-11T00:11:35.297Z,90.82
2022-10-11T00:12:35.286Z,90.37
2022-10-11T00:13:35.279Z,91.33
2022-10-11T00:14:35.258Z,90.72
2022-10-11T00:15:35.267Z,90.72
2022-10-11T00:16:35.249Z,90.62
2022-10-11T00:17:35.225Z,90.11
2022-10-11T00:18:35.223Z,90.92
2022-10-11T00:19:35.201Z,90.56
2022-10-11T00:20:35.211Z,90.72
2022-10-11T00:21:35.179Z,91.17
2022-10-11T00:22:35.169Z,91.38
2022-10-11T00:23:35.184Z,91.38
2022-10-11T00:24:35.145Z,91.48
2022-10-11T00:25:35.154Z,91.69
2022-10-11T00:26:35.134Z,91.27
2022-10-11T00:27:35.111Z,92.19
2022-10-11T00:28:35.163Z,92.50
2022-10-11T00:29:35.110Z,92.60
2022-10-11T00:30:35.094Z,92.50
2022-10-11T00:31:35.967Z,91.93
2022-10-11T00:32:35.062Z,92.14
2022-10-11T00:33:35.049Z,92.65
2022-10-11T00:34:35.038Z,92.65
2022-10-11T00:35:35.043Z,92.65
2022-10-11T00:36:35.012Z,92.65
2022-10-11T00:37:35.006Z,92.85
2022-10-11T00:38:34.997Z,92.75
2022-10-11T00:39:35.005Z,92.96
2022-10-11T00:40:34.989Z,93.10
2022-10-11T00:41:34.963Z,93.10
2022-10-11T00:42:34.951Z,93.71
2022-10-11T00:43:34.932Z,93.30
2022-10-11T00:44:34.934Z,93.51
2022-10-11T00:45:34.934Z,93.92
2022-10-11T00:46:34.911Z,93.92
2022-10-11T00:47:34.897Z,94.12
2022-10-11T00:48:34.877Z,94.02
2022-10-11T00:49:34.879Z,93.71
2022-10-11T00:50:34.870Z,93.71
2022-10-11T00:51:34.845Z,93.55
2022-10-11T00:52:34.835Z,93.82
2022-10-11T00:53:34.826Z,93.92
2022-10-11T00:54:34.817Z,93.76
2022-10-11T00:55:34.838Z,93.96
2022-10-11T00:56:34.793Z,94.68
2022-10-11T00:57:34.773Z,93.96
2022-10-11T00:58:34.765Z,94.01
2022-10-11T00:59:34.759Z,94.07
2022-10-11T01:00:34.754Z,93.66
2022-10-11T01:01:34.803Z,93.25
2022-10-11T01:02:34.727Z,93.76
2022-10-11T01:03:34.716Z,93.29
2022-10-11T01:04:34.705Z,93.25
2022-10-11T01:05:34.706Z,93.66
2022-10-11T01:06:34.673Z,93.49
2022-10-11T01:07:34.666Z,93.45
2022-10-11T01:08:34.660Z,94.11
2022-10-11T01:09:34.647Z,93.96
2022-10-11T01:10:34.644Z,93.80
2022-10-11T01:11:34.636Z,94.21
2022-10-11T01:12:34.606Z,93.90
2022-10-11T01:13:34.601Z,93.29
2022-10-11T01:14:34.584Z,93.70
2022-10-11T01:15:34.589Z,93.70
2022-10-11T01:16:34.570Z,94.01
2022-10-11T01:17:34.551Z,93.80
2022-10-11T01:18:34.539Z,94.05
2022-10-11T01:19:34.528Z,93.49
2022-10-11T01:20:34.529Z,94.11
2022-10-11T01:21:34.505Z,94.01
2022-10-11T01:22:34.495Z,94.36
2022-10-11T01:23:34.486Z,94.32
2022-10-11T01:24:34.483Z,94.67
2022-10-11T01:25:34.481Z,94.26
2022-10-11T01:26:34.456Z,94.42
2022-10-11T01:27:34.459Z,94.52
2022-10-11T01:28:34.505Z,94.05
2022-10-11T01:29:34.422Z,94.77
2022-10-11T01:30:34.424Z,94.56
2022-10-11T01:31:34.399Z,94.77
2022-10-11T01:32:34.391Z,94.67
2022-10-11T01:33:34.376Z,94.77
2022-10-11T01:34:34.371Z,94.67
2022-10-11T01:35:34.362Z,93.89
2022-10-11T01:36:34.343Z,94.40
2022-10-11T01:37:34.338Z,94.61
2022-10-11T01:38:34.339Z,94.40
2022-10-11T01:39:34.302Z,95.02
2022-10-11T01:40:34.308Z,94.30
2022-10-11T01:41:34.283Z,94.81
2022-10-11T01:42:34.280Z,95.12
2022-10-11T01:43:34.279Z,94.40
2022-10-11T01:44:34.253Z,94.61
2022-10-11T01:45:34.251Z,95.02
2022-10-11T01:46:34.235Z,94.51
2022-10-11T01:47:34.212Z,94.67
2022-10-11T01:48:34.208Z,95.02
2022-10-11T01:49:34.197Z,94.40
2022-10-11T01:50:34.198Z,94.76
2022-10-11T01:51:34.166Z,95.12
2022-10-11T01:52:34.165Z,94.65
2022-10-11T01:53:34.155Z,95.02
2022-10-11T01:54:56.480Z,94.71
2022-10-11T01:55:35.140Z,94.81
2022-10-11T01:56:34.112Z,95.02
2022-10-11T01:57:34.099Z,94.85
2022-10-11T01:58:34.097Z,94.76
2022-10-11T01:59:34.096Z,94.81
2022-10-11T02:00:34.085Z,94.76
2022-10-11T02:01:34.137Z,94.71
2022-10-11T02:02:34.052Z,94.85
2022-10-11T02:03:34.031Z,94.61
2022-10-11T02:04:34.029Z,94.85
2022-10-11T02:05:34.033Z,94.85
2022-10-11T02:06:33.999Z,94.71
2022-10-11T02:07:33.994Z,95.06
2022-10-11T02:08:33.982Z,94.65
2022-10-11T02:09:33.971Z,94.65
2022-10-11T02:10:33.978Z,94.85
2022-10-11T02:11:33.955Z,94.55
2022-10-11T02:12:33.939Z,94.55
2022-10-11T02:13:33.926Z,94.65
2022-10-11T02:14:33.910Z,94.65
2022-10-11T02:15:33.945Z,94.61
2022-10-11T02:16:33.893Z,94.76
2022-10-11T02:17:33.878Z,94.85
2022-10-11T02:18:33.869Z,94.51
2022-10-11T02:19:33.852Z,94.65
2022-10-11T02:20:33.859Z,94.65
2022-10-11T02:21:33.838Z,94.76
2022-10-11T02:22:33.820Z,94.65
2022-10-11T02:23:33.808Z,94.45
2022-10-11T02:24:33.816Z,94.59
2022-10-11T02:25:33.793Z,94.85
2022-10-11T02:26:33.773Z,94.96
2022-10-11T02:27:33.763Z,94.65
2022-10-11T02:28:33.839Z,94.59
2022-10-11T02:29:33.759Z,94.49
2022-10-11T02:30:33.728Z,95.10
2022-10-11T02:31:33.747Z,94.80
2022-10-11T02:32:33.705Z,94.90
2022-10-11T02:33:33.703Z,95.01
2022-10-11T02:34:33.702Z,94.90
2022-10-11T02:35:33.680Z,95.01
2022-10-11T02:36:33.662Z,95.31
2022-10-11T02:37:33.656Z,95.21
2022-10-11T02:38:33.641Z,95.31
2022-10-11T02:39:33.628Z,96.28
2022-10-11T02:40:33.637Z,95.83
2022-10-11T02:41:33.607Z,95.97
2022-10-11T02:42:33.600Z,96.39
2022-10-11T02:43:33.590Z,96.08
2022-10-11T02:44:33.570Z,96.18
2022-10-11T02:45:33.586Z,95.15
2022-10-11T02:46:33.556Z,95.40
2022-10-11T02:47:33.561Z,95.67
2022-10-11T02:48:33.533Z,95.87
2022-10-11T02:49:33.524Z,95.71
2022-10-11T02:50:33.517Z,96.22
2022-10-11T02:51:33.492Z,96.12
2022-10-11T02:52:33.486Z,95.97
2022-10-11T02:53:33.484Z,95.81
2022-10-11T02:54:33.462Z,95.92
2022-10-11T02:55:33.465Z,95.56
2022-10-11T02:56:33.437Z,95.56
2022-10-11T02:57:33.426Z,95.92
2022-10-11T02:58:33.433Z,95.71
2022-10-11T02:59:33.415Z,95.61
2022-10-11T03:00:33.416Z,96.02
2022-10-11T03:01:33.465Z,96.02
2022-10-11T03:02:33.377Z,95.97
2022-10-11T03:03:33.377Z,95.97
2022-10-11T03:04:33.353Z,96.12
2022-10-11T03:05:33.355Z,96.02
2022-10-11T03:06:33.330Z,95.92
2022-10-11T03:07:33.322Z,95.61
2022-10-11T03:08:33.314Z,95.50
2022-10-11T03:09:33.290Z,96.02
2022-10-11T03:10:33.298Z,96.22
2022-10-11T03:11:33.267Z,95.50
2022-10-11T03:12:33.254Z,95.61
2022-10-11T03:13:33.249Z,95.71
2022-10-11T03:14:33.239Z,96.02
2022-10-11T03:15:33.234Z,95.71
2022-10-11T03:16:33.219Z,96.02
2022-10-11T03:17:37.274Z,95.61
2022-10-11T03:18:33.193Z,95.81
2022-10-11T03:19:33.208Z,96.06
2022-10-11T03:20:33.180Z,96.22
2022-10-11T03:21:33.153Z,95.40
2022-10-11T03:22:33.148Z,95.61
2022-10-11T03:23:33.142Z,95.86
2022-10-11T03:24:33.129Z,95.92
2022-10-11T03:25:33.123Z,95.65
2022-10-11T03:26:33.096Z,96.02
2022-10-11T03:27:33.093Z,95.86
2022-10-11T03:28:33.179Z,95.75
2022-10-11T03:29:33.071Z,95.75
2022-10-11T03:30:33.072Z,95.96
2022-10-11T03:31:33.047Z,95.65
2022-10-11T03:32:33.035Z,95.96
2022-10-11T03:33:33.024Z,96.27
2022-10-11T03:34:33.014Z,96.06
2022-10-11T03:35:33.038Z,95.45
2022-10-11T03:36:32.984Z,95.86
2022-10-11T03:37:32.972Z,96.17
2022-10-11T03:38:32.992Z,96.17
2022-10-11T03:39:32.959Z,95.96
2022-10-11T03:40:32.959Z,95.96
2022-10-11T03:41:32.930Z,95.96
2022-10-11T03:42:32.930Z,96.27
2022-10-11T03:43:32.905Z,95.75
2022-10-11T03:44:32.899Z,95.59
2022-10-11T03:45:32.899Z,96.00
2022-10-11T03:46:32.882Z,96.11
2022-10-11T03:47:32.864Z,96.52
2022-10-11T03:48:32.851Z,96.72
2022-10-11T03:49:32.845Z,96.47
2022-10-11T03:50:32.843Z,96.62
2022-10-11T03:51:32.836Z,97.03
2022-10-11T03:52:32.810Z,96.83
2022-10-11T03:53:32.801Z,96.72
2022-10-11T03:54:32.785Z,96.56
2022-10-11T03:55:32.784Z,96.52
2022-10-11T03:56:32.758Z,96.93
2022-10-11T03:57:32.758Z,96.88
2022-10-11T03:58:32.736Z,96.97
2022-10-11T03:59:32.733Z,96.93
2022-10-11T04:00:32.728Z,96.42
2022-10-11T04:01:32.797Z,96.46
2022-10-11T04:02:36.994Z,96.42
2022-10-11T04:03:33.676Z,96.52
2022-10-11T04:04:32.672Z,96.97
2022-10-11T04:05:32.669Z,96.56
2022-10-11T04:06:32.643Z,96.88
2022-10-11T04:07:32.664Z,96.56
2022-10-11T04:08:32.632Z,96.77
2022-10-11T04:09:32.614Z,96.67
2022-10-11T04:10:32.619Z,97.60
2022-10-11T04:11:32.590Z,97.28
2022-10-11T04:12:32.587Z,96.67
2022-10-11T04:13:32.578Z,97.08
2022-10-11T04:14:32.561Z,96.67
2022-10-11T04:15:32.556Z,96.50
2022-10-11T04:16:32.541Z,96.50
2022-10-11T04:17:32.529Z,96.61
2022-10-11T04:18:32.509Z,97.64
2022-10-11T04:19:32.507Z,96.61
2022-10-11T04:20:32.512Z,96.61
2022-10-11T04:21:32.497Z,97.02
2022-10-11T04:22:32.470Z,96.61
2022-10-11T04:23:32.475Z,96.92
2022-10-11T04:24:32.446Z,97.23
2022-10-11T04:25:32.447Z,96.92
2022-10-11T04:26:32.437Z,97.43
2022-10-11T04:27:32.422Z,97.38
2022-10-11T04:28:32.490Z,97.38
2022-10-11T04:29:32.986Z,97.17
2022-10-11T04:30:32.373Z,97.02
2022-10-11T04:31:32.394Z,97.53
2022-10-11T04:32:32.364Z,97.33
2022-10-11T04:33:32.341Z,97.33
2022-10-11T04:34:32.348Z,97.43
2022-10-11T04:35:32.326Z,97.33
2022-10-11T04:36:32.327Z,97.33
2022-10-11T04:37:32.304Z,97.38
2022-10-11T04:38:32.297Z,97.33
2022-10-11T04:39:32.302Z,97.33
2022-10-11T04:40:32.267Z,97.38
2022-10-11T04:41:32.262Z,97.48
2022-10-11T04:42:32.247Z,97.38
2022-10-11T04:43:32.229Z,97.64
2022-10-11T04:44:32.222Z,97.89
2022-10-11T04:45:32.220Z,97.27
2022-10-11T04:46:32.215Z,97.89
2022-10-11T04:47:32.191Z,97.99
2022-10-11T04:48:32.178Z,97.74
2022-10-11T04:49:32.173Z,97.74
2022-10-11T04:50:32.158Z,97.78
2022-10-11T04:51:32.174Z,97.74
2022-10-11T04:52:32.135Z,97.85
2022-10-11T04:53:32.116Z,97.85
2022-10-11T04:54:32.105Z,98.30
2022-10-11T04:55:32.115Z,98.25
2022-10-11T04:56:32.081Z,98.57
2022-10-11T04:57:32.086Z,98.42
2022-10-11T04:58:32.066Z,98.46
2022-10-11T04:59:32.058Z,98.46
2022-10-11T05:00:32.038Z,98.25
2022-10-11T05:01:32.038Z,98.05
2022-10-11T05:02:32.108Z,98.42
2022-10-11T05:03:32.013Z,98.05
2022-10-11T05:04:31.995Z,98.32
2022-10-11T05:05:31.981Z,98.42
2022-10-11T05:06:31.969Z,98.62
2022-10-11T05:07:31.974Z,98.62
2022-10-11T05:08:31.946Z,98.83
2022-10-11T05:09:31.936Z,98.62
2022-10-11T05:10:31.924Z,98.83
2022-10-11T05:11:31.933Z,99.14
2022-10-11T05:12:31.920Z,99.44
2022-10-11T05:13:31.892Z,98.99
2022-10-11T05:14:31.886Z,98.88
2022-10-11T05:15:31.870Z,98.99
2022-10-11T05:16:31.860Z,99.09
2022-10-11T05:17:31.851Z,99.09
2022-10-11T05:18:31.861Z,99.40
2022-10-11T05:19:31.834Z,99.40
2022-10-11T05:20:31.820Z,98.94
2022-10-11T05:21:31.812Z,99.19
2022-10-11T05:22:31.790Z,99.35
2022-10-11T05:23:31.824Z,99.40
2022-10-11T05:24:31.767Z,99.77
2022-10-11T05:25:31.769Z,99.87
2022-10-11T05:26:31.751Z,99.97
2022-10-11T05:27:31.756Z,99.66
2022-10-11T05:28:31.780Z,99.62
2022-10-11T05:29:31.731Z,99.66
2022-10-11T05:30:31.699Z,99.46
2022-10-11T05:31:31.699Z,99.41
2022-10-11T05:32:31.682Z,99.99
2022-10-11T05:33:31.673Z,99.99
2022-10-11T05:34:31.676Z,99.99
2022-10-11T05:35:31.656Z,99.99
2022-10-11T05:36:31.637Z,99.99
2022-10-11T05:37:31.630Z,99.99
2022-10-11T05:38:31.609Z,99.99
2022-10-11T05:39:31.616Z,99.99
2022-10-11T05:40:31.589Z,99.99
2022-10-11T05:41:31.584Z,99.99
2022-10-11T05:42:31.571Z,99.99
2022-10-11T05:43:31.574Z,99.99
2022-10-11T05:44:31.559Z,99.99
2022-10-11T05:45:31.536Z,99.99
2022-10-11T05:46:31.522Z,99.99
2022-10-11T05:47:31.507Z,99.82
2022-10-11T05:48:31.503Z,99.99
2022-10-11T05:49:31.503Z,99.99
2022-10-11T05:50:31.475Z,99.99
2022-10-11T05:51:31.462Z,99.99
2022-10-11T05:52:31.451Z,99.98
2022-10-11T05:53:31.447Z,99.99
2022-10-11T05:54:31.444Z,99.99
2022-10-11T05:55:31.419Z,99.98
2022-10-11T05:56:31.416Z,99.98
2022-10-11T05:57:31.406Z,99.99
2022-10-11T05:58:31.404Z,99.99
2022-10-11T05:59:31.416Z,99.93
2022-10-11T06:00:31.369Z,99.99
2022-10-11T06:01:31.365Z,99.99
2022-10-11T06:02:31.339Z,99.99
2022-10-11T06:03:31.341Z,99.99
2022-10-11T06:04:31.973Z,99.99
2022-10-11T06:05:31.323Z,99.99
2022-10-11T06:06:31.301Z,99.99
2022-10-11T06:07:31.294Z,99.99
2022-10-11T06:08:31.271Z,99.99
2022-10-11T06:09:31.268Z,99.99
2022-10-11T06:10:31.355Z,99.99
2022-10-11T06:11:31.245Z,99.99
2022-10-11T06:12:31.233Z,99.99
2022-10-11T06:13:31.222Z,99.99
2022-10-11T06:14:31.210Z,99.99
2022-10-11T06:15:31.229Z,99.99
2022-10-11T06:16:31.216Z,99.99
2022-10-11T06:17:31.173Z,99.99
2022-10-11T06:18:31.159Z,99.99
2022-10-11T06:19:31.149Z,99.99
2022-10-11T06:20:31.159Z,99.99
2022-10-11T06:21:31.137Z,99.99
2022-10-11T06:22:31.114Z,99.99
2022-10-11T06:23:31.102Z,99.99
2022-10-11T06:24:31.091Z,99.99
2022-10-11T06:25:31.098Z,99.99
2022-10-11T06:26:31.071Z,99.99
2022-10-11T06:27:31.060Z,99.99
2022-10-11T06:28:31.116Z,99.99
2022-10-11T06:29:31.034Z,99.99
2022-10-11T06:30:31.038Z,99.99
2022-10-11T06:31:31.061Z,99.99
2022-10-11T06:32:31.001Z,99.99
2022-10-11T06:33:30.998Z,99.99
2022-10-11T06:34:30.990Z,99.99
2022-10-11T06:35:30.990Z,99.99
2022-10-11T06:36:30.971Z,99.99
2022-10-11T06:37:30.956Z,99.99
2022-10-11T06:38:30.947Z,99.99
2022-10-11T06:39:30.944Z,99.99
2022-10-11T06:40:30.926Z,99.99
2022-10-11T06:41:30.951Z,99.99
2022-10-11T06:42:30.890Z,99.99
2022-10-11T06:43:30.877Z,99.99
2022-10-11T06:44:30.867Z,99.99
2022-10-11T06:45:30.887Z,99.99
2022-10-11T06:46:30.872Z,99.99
2022-10-11T06:47:30.887Z,99.99
2022-10-11T06:48:30.822Z,99.99
2022-10-11T06:49:30.810Z,99.99
2022-10-11T06:50:57.886Z,99.99
2022-10-11T06:51:31.794Z,99.99
2022-10-11T06:52:30.787Z,99.99
2022-10-11T06:53:30.764Z,99.99
2022-10-11T06:54:30.757Z,99.90
2022-10-11T06:55:30.782Z,99.99
2022-10-11T06:56:30.739Z,99.99
2022-10-11T06:57:30.734Z,99.99
2022-10-11T06:58:30.715Z,99.99
2022-10-11T06:59:30.708Z,99.99
2022-10-11T07:00:30.730Z,99.99
2022-10-11T07:01:30.716Z,99.99
2022-10-11T07:02:30.672Z,99.99
2022-10-11T07:03:30.682Z,99.99
2022-10-11T07:04:30.649Z,99.99
2022-10-11T07:05:30.630Z,99.99
2022-10-11T07:06:30.640Z,99.99
2022-10-11T07:07:30.606Z,99.99
2022-10-11T07:08:30.631Z,99.99
2022-10-11T07:09:30.591Z,99.99
2022-10-11T07:10:30.577Z,99.99
2022-10-11T07:11:30.582Z,99.99
2022-10-11T07:12:30.553Z,99.99
2022-10-11T07:13:30.539Z,99.99
2022-10-11T07:14:30.529Z,99.99
2022-10-11T07:15:30.522Z,99.99
2022-10-11T07:16:30.530Z,99.99
2022-10-11T07:17:30.506Z,99.99
2022-10-11T07:18:30.483Z,99.99
2022-10-11T07:19:30.501Z,99.99
2022-10-11T07:20:30.467Z,99.99
2022-10-11T07:21:30.624Z,99.99
2022-10-11T07:22:30.439Z,99.99
2022-10-11T07:23:30.458Z,99.99
2022-10-11T07:24:30.420Z,99.99
2022-10-11T07:25:30.410Z,99.99
2022-10-11T07:26:35.235Z,99.99
2022-10-11T07:27:31.434Z,99.99
2022-10-11T07:28:30.541Z,99.99
2022-10-11T07:29:30.376Z,99.99
2022-10-11T07:30:30.355Z,99.99
2022-10-11T07:31:30.376Z,99.99
2022-10-11T07:32:30.350Z,99.99
2022-10-11T07:33:30.316Z,99.99
2022-10-11T07:34:30.312Z,99.99
2022-10-11T07:35:30.317Z,99.99
2022-10-11T07:36:30.305Z,99.99
2022-10-11T07:37:30.275Z,99.99
2022-10-11T07:38:30.267Z,99.95
2022-10-11T07:39:30.260Z,99.99
2022-10-11T07:40:30.237Z,99.99
2022-10-11T07:41:30.243Z,99.99
2022-10-11T07:42:30.215Z,99.99
2022-10-11T07:43:30.202Z,99.99
2022-10-11T07:44:30.207Z,99.99
2022-10-11T07:45:30.188Z,99.99
2022-10-11T07:46:30.194Z,99.99
2022-10-11T07:47:30.163Z,99.99
2022-10-11T07:48:30.156Z,99.99
2022-10-11T07:49:30.144Z,99.99
2022-10-11T07:50:30.132Z,99.95
2022-10-11T07:51:30.144Z,99.99
2022-10-11T07:52:30.119Z,99.99
2022-10-11T07:53:30.090Z,99.99
2022-10-11T07:54:30.089Z,99.95
2022-10-11T07:55:30.078Z,99.99
2022-10-11T07:56:30.057Z,99.99
2022-10-11T07:57:30.063Z,99.65
2022-10-11T07:58:30.042Z,99.99
2022-10-11T07:59:30.022Z,99.65
2022-10-11T08:00:30.020Z,99.34
2022-10-11T08:01:30.158Z,99.13
2022-10-11T08:02:30.012Z,99.09
2022-10-11T08:03:29.979Z,99.13
2022-10-11T08:04:29.974Z,99.50
2022-10-11T08:05:29.954Z,99.54
2022-10-11T08:06:29.945Z,99.75
2022-10-11T08:07:29.979Z,99.34
2022-10-11T08:08:29.941Z,99.34
2022-10-11T08:09:29.912Z,99.65
2022-10-11T08:10:29.898Z,99.44
2022-10-11T08:11:29.887Z,99.44
2022-10-11T08:12:29.888Z,99.34
2022-10-11T08:13:29.871Z,99.40
2022-10-11T08:14:29.855Z,99.65
2022-10-11T08:15:29.848Z,99.50
2022-10-11T08:16:29.838Z,99.44
2022-10-11T08:17:29.840Z,98.83
2022-10-11T08:18:29.810Z,98.78
2022-10-11T08:19:29.816Z,98.88
2022-10-11T08:20:29.798Z,98.52
2022-10-11T08:21:29.775Z,99.03
2022-10-11T08:22:29.796Z,98.62
2022-10-11T08:23:29.770Z,98.52
2022-10-11T08:24:31.062Z,98.83
2022-10-11T08:25:29.736Z,98.32
2022-10-11T08:26:29.716Z,98.52
2022-10-11T08:27:29.725Z,98.88
2022-10-11T08:28:29.758Z,99.03
2022-10-11T08:29:29.689Z,98.72
2022-10-11T08:30:29.696Z,98.27
2022-10-11T08:31:29.659Z,98.88
2022-10-11T08:32:29.670Z,98.58
2022-10-11T08:33:29.639Z,98.47
2022-10-11T08:34:29.631Z,98.37
2022-10-11T08:35:29.616Z,98.58
2022-10-11T08:36:29.609Z,98.12
2022-10-11T08:37:29.622Z,98.33
2022-10-11T08:38:29.599Z,98.22
2022-10-11T08:39:29.593Z,98.12
2022-10-11T08:40:34.375Z,97.61
2022-10-11T08:41:30.570Z,97.50
2022-10-11T08:42:29.557Z,97.71
2022-10-11T08:43:29.533Z,97.34
2022-10-11T08:44:37.435Z,96.79
2022-10-11T08:45:30.512Z,97.04
2022-10-11T08:46:29.492Z,96.94
2022-10-11T08:47:29.488Z,96.73
2022-10-11T08:48:29.493Z,96.94
2022-10-11T08:49:29.465Z,96.83
2022-10-11T08:50:29.458Z,97.04
2022-10-11T08:51:29.447Z,96.94
2022-10-11T08:52:29.423Z,96.42
2022-10-11T08:53:29.432Z,96.63
2022-10-11T08:54:29.408Z,96.94
2022-10-11T08:55:29.421Z,96.63
2022-10-11T08:56:29.379Z,96.42
2022-10-11T08:57:29.365Z,96.12
2022-10-11T08:58:29.365Z,96.32
2022-10-11T08:59:29.357Z,96.53
2022-10-11T09:00:29.332Z,95.81
2022-10-11T09:01:29.412Z,95.81
2022-10-11T09:02:43.645Z,96.01
2022-10-11T09:03:30.315Z,96.28
2022-10-11T09:04:29.288Z,96.28
2022-10-11T09:05:29.282Z,96.38
2022-10-11T09:06:29.307Z,95.97
2022-10-11T09:07:29.256Z,96.13
2022-10-11T09:08:29.273Z,96.64
2022-10-11T09:09:29.230Z,95.41
2022-10-11T09:10:29.234Z,95.47
2022-10-11T09:11:29.236Z,94.85
2022-10-11T09:12:32.818Z,94.96
2022-10-11T09:13:30.224Z,94.65
2022-10-11T09:14:29.211Z,94.60
2022-10-11T09:15:29.173Z,94.40
2022-10-11T09:16:29.159Z,94.51
2022-10-11T09:17:29.141Z,93.69
2022-10-11T09:18:29.132Z,93.74
2022-10-11T09:19:29.139Z,93.85
2022-10-11T09:20:29.125Z,93.74
2022-10-11T09:21:29.103Z,93.70
2022-10-11T09:22:30.798Z,92.52
2022-10-11T09:23:29.079Z,92.47
2022-10-11T09:24:29.085Z,91.86
2022-10-11T09:25:29.075Z,91.56
2022-10-11T09:26:29.059Z,91.25
2022-10-11T09:27:50.222Z,91.66
2022-10-11T09:28:30.091Z,91.56
2022-10-11T09:29:29.023Z,91.50
2022-10-11T09:30:29.108Z,91.05
2022-10-11T09:31:28.991Z,91.35
2022-10-11T09:32:28.981Z,91.76
2022-10-11T09:33:28.967Z,91.56
2022-10-11T09:34:28.968Z,91.46
2022-10-11T09:35:28.939Z,91.66
2022-10-11T09:36:28.927Z,91.41
2022-10-11T09:37:28.922Z,91.52
2022-10-11T09:38:28.914Z,91.11
2022-10-11T09:39:28.926Z,91.52
2022-10-11T09:40:28.890Z,90.90
2022-10-11T09:41:28.869Z,91.37
2022-10-11T09:42:28.869Z,90.25
2022-10-11T09:43:28.869Z,89.53
2022-10-11T09:44:28.848Z,89.39
2022-10-11T09:45:28.831Z,89.49
2022-10-11T09:46:28.823Z,89.49
2022-10-11T09:47:28.819Z,88.78
2022-10-11T09:48:28.794Z,88.57
2022-10-11T09:49:28.802Z,88.06
2022-10-11T09:50:28.770Z,88.26
2022-10-11T09:51:28.759Z,88.20
2022-10-11T09:52:28.749Z,88.37
2022-10-11T09:53:28.749Z,88.88
2022-10-11T09:54:28.753Z,88.88
2022-10-11T09:55:28.722Z,88.78
2022-10-11T09:56:28.715Z,88.88
2022-10-11T09:57:28.697Z,88.88
2022-10-11T09:58:28.682Z,88.63
2022-10-11T09:59:28.783Z,88.43
2022-10-11T10:00:28.657Z,88.22
2022-10-11T10:01:28.704Z,87.24
2022-10-11T10:02:28.643Z,87.35
2022-10-11T10:03:28.629Z,87.55
2022-10-11T10:04:28.658Z,87.51
2022-10-11T10:05:28.600Z,87.04
2022-10-11T10:06:28.596Z,87.35
2022-10-11T10:07:28.586Z,88.06
2022-10-11T10:08:28.578Z,88.22
2022-10-11T10:09:28.566Z,88.63
2022-10-11T10:10:28.567Z,88.02
2022-10-11T10:11:28.534Z,88.18
2022-10-11T10:12:28.544Z,87.37
2022-10-11T10:13:28.519Z,87.02
2022-10-11T10:14:28.508Z,87.32
2022-10-11T10:15:28.532Z,87.29
2022-10-11T10:16:28.478Z,86.57
2022-10-11T10:17:28.474Z,86.83
2022-10-11T10:18:28.475Z,85.98
2022-10-11T10:19:28.443Z,85.43
2022-10-11T10:20:28.524Z,84.11
2022-10-11T10:21:28.420Z,82.85
2022-10-11T10:22:28.415Z,82.24
2022-10-11T10:23:28.406Z,82.78
2022-10-11T10:24:28.395Z,83.08
2022-10-11T10:25:28.532Z,81.31
2022-10-11T10:26:28.372Z,80.32
2022-10-11T10:27:28.353Z,80.29
2022-10-11T10:28:28.385Z,78.02
2022-10-11T10:29:28.334Z,76.50
2022-10-11T10:30:33.084Z,76.87
2022-10-11T10:31:29.336Z,75.85
2022-10-11T10:32:28.324Z,76.53
2022-10-11T10:33:28.292Z,75.11
2022-10-11T10:34:28.283Z,73.90
2022-10-11T10:35:28.263Z,74.51
2022-10-11T10:36:28.283Z,73.80
2022-10-11T10:37:28.250Z,75.01
2022-10-11T10:38:28.260Z,74.81
2022-10-11T10:39:28.220Z,75.01
2022-10-11T10:40:28.216Z,73.49
2022-10-11T10:41:28.211Z,73.19
2022-10-11T10:42:28.187Z,73.90
2022-10-11T10:43:28.178Z,75.38
2022-10-11T10:44:28.176Z,73.86
2022-10-11T10:45:28.155Z,73.96
2022-10-11T10:46:28.166Z,74.03
2022-10-11T10:47:28.154Z,73.69
2022-10-11T10:48:28.120Z,72.24
2022-10-11T10:49:52.554Z,71.70
2022-10-11T10:50:29.095Z,71.10
2022-10-11T10:51:28.101Z,70.96
2022-10-11T10:52:28.081Z,70.56
2022-10-11T10:53:28.062Z,70.36
2022-10-11T10:54:28.552Z,70.26
2022-10-11T10:55:28.046Z,71.23
2022-10-11T10:56:28.051Z,69.01
2022-10-11T10:57:28.028Z,68.57
2022-10-11T10:58:28.012Z,68.17
2022-10-11T10:59:27.996Z,67.33
2022-10-11T11:00:27.982Z,66.46
2022-10-11T11:01:28.092Z,67.97
2022-10-11T11:02:40.298Z,68.68
2022-10-11T11:03:28.982Z,68.95
2022-10-11T11:04:27.941Z,66.70
2022-10-11T11:05:27.943Z,66.19
2022-10-11T11:06:28.994Z,66.50
2022-10-11T11:07:27.943Z,67.07
2022-10-11T11:08:27.902Z,65.76
2022-10-11T11:09:27.892Z,65.16
2022-10-11T11:10:27.881Z,66.27
2022-10-11T11:11:27.867Z,65.46
2022-10-11T11:12:27.869Z,66.16
2022-10-11T11:13:27.850Z,65.06
2022-10-11T11:14:27.827Z,65.79
2022-10-11T11:15:32.569Z,65.62
2022-10-11T11:16:28.807Z,65.95
2022-10-11T11:17:27.823Z,66.66
2022-10-11T11:18:27.782Z,66.93
2022-10-11T11:19:27.821Z,66.93
2022-10-11T11:20:27.767Z,68.11
2022-10-11T11:21:27.761Z,67.40
2022-10-11T11:22:32.490Z,66.36
2022-10-11T11:23:28.745Z,66.10
2022-10-11T11:24:27.721Z,65.70
2022-10-11T11:25:27.717Z,65.56
2022-10-11T11:26:27.697Z,65.94
2022-10-11T11:27:27.690Z,64.40
2022-10-11T11:28:27.758Z,63.26
2022-10-11T11:29:27.667Z,61.83
2022-10-11T11:30:27.649Z,62.30
2022-10-11T11:31:27.648Z,62.37
2022-10-11T11:32:27.631Z,61.17
2022-10-11T11:33:27.615Z,61.24
2022-10-11T11:34:27.625Z,61.24
2022-10-11T11:35:27.611Z,60.41
2022-10-11T11:36:27.590Z,59.64
2022-10-11T11:37:27.574Z,60.71
2022-10-11T11:38:29.750Z,59.31
2022-10-11T11:39:27.567Z,58.98
2022-10-11T11:40:27.547Z,57.17
2022-10-11T11:41:27.525Z,58.55
2022-10-11T11:42:27.534Z,59.65
2022-10-11T11:43:27.514Z,57.72
2022-10-11T11:44:27.834Z,57.72
2022-10-11T11:45:27.485Z,56.82
2022-10-11T11:46:27.472Z,56.74
2022-10-11T11:47:27.466Z,57.05
2022-10-11T11:48:27.456Z,57.15
2022-10-11T11:49:27.453Z,57.45
2022-10-11T11:50:29.493Z,57.37
2022-10-11T11:51:30.469Z,57.07
2022-10-11T11:52:27.411Z,57.60
2022-10-11T11:53:27.407Z,57.00
2022-10-11T11:54:27.401Z,57.40
2022-10-11T11:55:27.372Z,57.33
2022-10-11T11:56:27.367Z,57.15
2022-10-11T11:57:27.356Z,57.28
2022-10-11T11:58:27.344Z,57.68
2022-10-11T11:59:27.368Z,58.04
2022-10-11T12:00:27.323Z,59.17
2022-10-11T12:01:31.158Z,59.25
2022-10-11T12:02:27.378Z,59.85
2022-10-11T12:03:27.292Z,59.72
2022-10-11T12:04:27.290Z,59.01
2022-10-11T12:05:27.271Z,57.48
2022-10-11T12:06:27.254Z,58.72
2022-10-11T12:07:27.268Z,59.12
2022-10-11T12:08:27.227Z,58.31
2022-10-11T12:09:27.236Z,57.89
2022-10-11T12:10:27.227Z,57.89
2022-10-11T12:11:29.518Z,58.69
2022-10-11T12:12:28.184Z,56.58
2022-10-11T12:13:31.944Z,55.68
2022-10-11T12:14:28.170Z,56.58
2022-10-11T12:15:27.162Z,56.78
2022-10-11T12:16:27.194Z,56.88
2022-10-11T12:17:27.132Z,56.85
2022-10-11T12:18:27.142Z,57.06
2022-10-11T12:19:27.133Z,55.05
2022-10-11T12:20:27.093Z,54.77
2022-10-11T12:21:27.083Z,55.58
2022-10-11T12:22:27.072Z,56.08
2022-10-11T12:23:27.143Z,56.52
2022-10-11T12:24:27.126Z,54.82
2022-10-11T12:25:27.061Z,54.70
2022-10-11T12:26:27.036Z,54.10
2022-10-11T12:27:27.019Z,53.07
2022-10-11T12:28:27.067Z,54.24
2022-10-11T12:29:29.080Z,53.74
2022-10-11T12:30:27.071Z,52.82
2022-10-11T12:31:27.004Z,52.49
2022-10-11T12:32:26.962Z,52.47
2022-10-11T12:33:26.949Z,51.47
2022-10-11T12:34:27.016Z,50.99
2022-10-11T12:35:27.065Z,51.39
2022-10-11T12:36:26.924Z,51.54
2022-10-11T12:37:26.916Z,50.84
2022-10-11T12:38:26.894Z,51.07
2022-10-11T12:39:26.905Z,52.57
2022-10-11T12:40:26.884Z,51.79
2022-10-11T12:41:26.877Z,52.62
2022-10-11T12:42:26.854Z,53.27
2022-10-11T12:43:26.849Z,54.07
2022-10-11T12:44:26.835Z,54.20
2022-10-11T12:45:26.832Z,55.63
2022-10-11T12:46:26.827Z,55.83
2022-10-11T12:47:26.795Z,54.80
2022-10-11T12:48:31.971Z,54.60
2022-10-11T12:49:27.771Z,55.20
2022-10-11T12:50:26.784Z,55.83
2022-10-11T12:51:26.753Z,55.30
2022-10-11T12:52:26.737Z,55.80